createdAt,value
2022-08-09T00:00:00.630Z,100593.69
2022-08-09T00:00:46.153Z,100597.53
2022-08-09T00:01:18.649Z,100602.66
2022-08-09T00:01:54.979Z,100594.97
2022-08-09T00:02:30.760Z,100601.22
2022-08-09T00:03:03.174Z,100601.22
2022-08-09T00:04:00.462Z,100600.72
2022-08-09T00:04:40.992Z,100598.00
2022-08-09T00:06:18.015Z,100596.22
2022-08-09T00:06:28.617Z,100590.44
2022-08-09T00:07:07.617Z,100598.00
2022-08-09T00:07:45.744Z,100589.78
2022-08-09T00:08:32.123Z,100596.88
2022-08-09T00:09:05.477Z,100601.88
2022-08-09T00:09:40.315Z,100591.72
2022-08-09T00:10:18.212Z,100596.88
2022-08-09T00:10:53.807Z,100590.59
2022-08-09T00:12:03.185Z,100591.41
2022-08-09T00:12:25.344Z,100592.06
2022-08-09T00:13:17.517Z,100595.25
2022-08-09T00:13:51.233Z,100587.72
2022-08-09T00:14:36.278Z,100596.41
2022-08-09T00:15:14.782Z,100590.94
2022-08-09T00:15:58.985Z,100599.91
2022-08-09T00:16:36.743Z,100596.41
2022-08-09T00:18:04.255Z,100596.41
2022-08-09T00:18:11.860Z,100594.28
2022-08-09T00:18:49.427Z,100595.09
2022-08-09T00:19:21.744Z,100595.91
2022-08-09T00:19:55.269Z,100600.25
2022-08-09T00:20:32.578Z,100585.47
2022-08-09T00:21:08.595Z,100597.53
2022-08-09T00:21:55.502Z,100598.34
2022-08-09T00:22:35.290Z,100594.28
2022-08-09T00:23:55.554Z,100595.75
2022-08-09T00:24:00.683Z,100589.78
2022-08-09T00:24:35.704Z,100598.94
2022-08-09T00:25:12.816Z,100593.47
2022-08-09T00:25:45.057Z,100594.28
2022-08-09T00:26:32.084Z,100602.03
2022-08-09T00:27:05.584Z,100586.72
2022-08-09T00:27:43.023Z,100590.28
2022-08-09T00:28:18.572Z,100591.09
2022-08-09T00:28:52.460Z,100594.63
2022-08-09T00:29:39.859Z,100591.91
2022-08-09T00:30:25.061Z,100590.59
2022-08-09T00:30:58.509Z,100591.38
2022-08-09T00:31:59.758Z,100590.28
2022-08-09T00:32:27.138Z,100595.25
2022-08-09T00:32:59.610Z,100587.84
2022-08-09T00:33:49.064Z,100586.72
2022-08-09T00:34:26.098Z,100586.56
2022-08-09T00:34:58.819Z,100586.88
2022-08-09T00:35:43.088Z,100597.16
2022-08-09T00:36:18.617Z,100592.84
2022-08-09T00:36:52.053Z,100590.91
2022-08-09T00:37:24.383Z,100592.50
2022-08-09T00:38:01.759Z,100588.66
2022-08-09T00:38:36.715Z,100596.38
2022-08-09T00:39:16.854Z,100594.94
2022-08-09T00:40:12.804Z,100595.56
2022-08-09T00:40:52.897Z,100596.69
2022-08-09T00:44:13.136Z,100587.19
2022-08-09T00:44:14.738Z,100597.16
2022-08-09T00:44:16.909Z,100591.22
2022-08-09T00:44:20.682Z,100589.59
2022-08-09T00:45:03.789Z,100591.88
2022-08-09T00:45:53.955Z,100596.19
2022-08-09T00:46:45.420Z,100587.97
2022-08-09T00:47:21.343Z,100592.97
2022-08-09T00:47:57.097Z,100592.66
2022-08-09T00:48:29.349Z,100583.03
2022-08-09T00:49:07.921Z,100591.69
2022-08-09T00:49:40.131Z,100594.94
2022-08-09T00:50:14.541Z,100596.56
2022-08-09T00:50:52.391Z,100596.56
2022-08-09T00:51:24.950Z,100585.94
2022-08-09T00:52:05.272Z,100596.22
2022-08-09T00:52:40.846Z,100596.22
2022-08-09T00:53:17.324Z,100590.44
2022-08-09T00:53:56.419Z,100591.09
2022-08-09T00:54:36.022Z,100595.09
2022-08-09T00:55:16.699Z,100591.91
2022-08-09T00:56:09.861Z,100592.19
2022-08-09T00:56:42.347Z,100597.66
2022-08-09T00:57:33.806Z,100596.56
2022-08-09T00:58:14.788Z,100596.69
2022-08-09T00:58:54.406Z,100596.19
2022-08-09T00:59:40.501Z,100601.34
2022-08-09T01:00:21.347Z,100597.34
2022-08-09T01:00:59.042Z,100594.09
2022-08-09T01:01:44.705Z,100602.28
2022-08-09T01:02:23.942Z,100595.22
2022-08-09T01:03:07.390Z,100594.75
2022-08-09T01:03:54.861Z,100595.03
2022-08-09T01:04:34.385Z,100598.06
2022-08-09T01:05:22.170Z,100588.75
2022-08-09T01:06:17.486Z,100590.22
2022-08-09T01:06:58.270Z,100585.34
2022-08-09T01:07:59.676Z,100585.34
2022-08-09T01:08:48.741Z,100586.50
2022-08-09T01:09:36.667Z,100583.78
2022-08-09T01:10:20.396Z,100591.63
2022-08-09T01:11:03.813Z,100589.88
2022-08-09T01:11:53.339Z,100581.50
2022-08-09T01:12:35.460Z,100594.38
2022-08-09T01:13:16.914Z,100590.81
2022-08-09T01:14:03.117Z,100590.00
2022-08-09T01:14:45.349Z,100591.16
2022-08-09T01:15:30.333Z,100585.69
2022-08-09T01:16:06.178Z,100590.00
2022-08-09T01:16:47.203Z,100597.91
2022-08-09T01:17:30.394Z,100598.22
2022-08-09T01:18:10.333Z,100596.63
2022-08-09T01:19:02.606Z,100595.31
2022-08-09T01:19:57.236Z,100602.22
2022-08-09T01:20:41.395Z,100597.41
2022-08-09T01:21:44.701Z,100597.41
2022-08-09T01:22:45.351Z,100598.34
2022-08-09T01:24:00.638Z,100603.00
2022-08-09T01:24:50.399Z,100604.09
2022-08-09T01:25:48.978Z,100601.38
2022-08-09T01:26:53.616Z,100605.53
2022-08-09T01:27:29.080Z,100599.75
2022-08-09T01:28:03.562Z,100600.25
2022-08-09T01:28:43.742Z,100596.09
2022-08-09T01:29:19.546Z,100595.78
2022-08-09T01:30:02.671Z,100597.69
2022-08-09T01:30:52.228Z,100591.13
2022-08-09T01:32:30.335Z,100594.16
2022-08-09T01:32:30.802Z,100593.66
2022-08-09T01:33:10.070Z,100598.50
2022-08-09T01:33:46.278Z,100591.94
2022-08-09T01:34:21.726Z,100597.06
2022-08-09T01:34:58.047Z,100594.03
2022-08-09T01:35:38.457Z,100589.03
2022-08-09T01:36:16.755Z,100587.44
2022-08-09T01:36:50.433Z,100591.78
2022-08-09T01:38:05.596Z,100586.00
2022-08-09T01:38:23.516Z,100589.69
2022-08-09T01:38:58.362Z,100594.34
2022-08-09T01:39:35.915Z,100590.19
2022-08-09T01:40:23.080Z,100590.19
2022-08-09T01:41:06.638Z,100584.22
2022-08-09T01:41:53.395Z,100591.28
2022-08-09T01:42:28.402Z,100589.69
2022-08-09T01:43:03.439Z,100592.91
2022-08-09T01:43:51.279Z,100591.00
2022-08-09T01:44:25.530Z,100588.25
2022-08-09T01:44:59.195Z,100593.91
2022-08-09T01:45:35.552Z,100585.34
2022-08-09T01:46:25.192Z,100594.69
2022-08-09T01:47:03.695Z,100598.22
2022-08-09T01:47:44.525Z,100591.63
2022-08-09T01:48:29.837Z,100596.28
2022-08-09T01:49:12.685Z,100590.34
2022-08-09T01:49:54.496Z,100590.34
2022-08-09T01:50:36.760Z,100590.34
2022-08-09T01:51:13.459Z,100597.44
2022-08-09T01:51:58.168Z,100597.75
2022-08-09T01:52:44.325Z,100595.00
2022-08-09T01:53:21.610Z,100593.91
2022-08-09T01:53:57.909Z,100594.38
2022-08-09T01:54:35.091Z,100596.00
2022-08-09T01:55:09.859Z,100594.06
2022-08-09T01:55:42.843Z,100592.94
2022-08-09T01:56:19.619Z,100596.97
2022-08-09T01:56:57.761Z,100593.41
2022-08-09T01:57:45.747Z,100583.94
2022-08-09T01:58:18.725Z,100599.22
2022-08-09T01:58:58.811Z,100591.03
2022-08-09T01:59:40.821Z,100594.22
2022-08-09T02:00:35.446Z,100600.34
2022-08-09T02:01:18.483Z,100594.06
2022-08-09T02:01:59.773Z,100593.25
2022-08-09T02:02:41.560Z,100599.53
2022-08-09T02:03:16.775Z,100592.44
2022-08-09T02:03:50.473Z,100596.00
2022-08-09T02:04:27.534Z,100589.41
2022-08-09T02:05:05.676Z,100594.88
2022-08-09T02:06:03.203Z,100596.28
2022-08-09T02:06:58.914Z,100599.97
2022-08-09T02:08:35.796Z,100598.00
2022-08-09T02:08:40.803Z,100595.13
2022-08-09T02:09:15.112Z,100598.81
2022-08-09T02:09:59.378Z,100603.97
2022-08-09T02:10:36.202Z,100594.47
2022-08-09T02:11:16.876Z,100599.94
2022-08-09T02:11:52.650Z,100597.19
2022-08-09T02:12:29.153Z,100603.47
2022-08-09T02:13:06.191Z,100596.38
2022-08-09T02:13:41.282Z,100596.38
2022-08-09T02:14:26.406Z,100586.59
2022-08-09T02:15:02.132Z,100597.03
2022-08-09T02:15:48.760Z,100591.56
2022-08-09T02:16:33.885Z,100584.00
2022-08-09T02:17:59.480Z,100592.78
2022-08-09T02:18:15.851Z,100588.47
2022-08-09T02:18:48.784Z,100593.28
2022-08-09T02:19:22.620Z,100580.16
2022-08-09T02:19:57.532Z,100587.41
2022-08-09T02:20:39.864Z,100584.97
2022-08-09T02:21:22.198Z,100586.91
2022-08-09T02:21:58.846Z,100586.91
2022-08-09T02:22:38.577Z,100587.72
2022-08-09T02:23:20.757Z,100588.19
2022-08-09T02:23:57.807Z,100586.91
2022-08-09T02:24:35.540Z,100589.34
2022-08-09T02:25:17.448Z,100587.72
2022-08-09T02:25:57.024Z,100585.63
2022-08-09T02:26:34.510Z,100593.81
2022-08-09T02:27:12.523Z,100593.81
2022-08-09T02:28:03.910Z,100585.09
2022-08-09T02:28:43.511Z,100588.13
2022-08-09T02:29:23.697Z,100593.59
2022-08-09T02:29:58.560Z,100598.22
2022-08-09T02:30:42.403Z,100600.66
2022-08-09T02:31:21.356Z,100598.22
2022-08-09T02:32:01.314Z,100602.13
2022-08-09T02:32:40.744Z,100602.13
2022-08-09T02:33:18.660Z,100598.56
2022-08-09T02:34:07.529Z,100595.03
2022-08-09T02:34:55.910Z,100602.72
2022-08-09T02:36:03.001Z,100600.78
2022-08-09T02:36:34.653Z,100599.19
2022-08-09T02:37:14.339Z,100599.69
2022-08-09T02:37:50.089Z,100605.97
2022-08-09T02:38:30.879Z,100605.31
2022-08-09T02:39:06.596Z,100599.38
2022-08-09T02:39:45.037Z,100604.50
2022-08-09T02:40:27.071Z,100606.44
2022-08-09T02:41:08.718Z,100591.50
2022-08-09T02:41:47.249Z,100605.16
2022-08-09T02:42:25.739Z,100601.59
2022-08-09T02:43:03.797Z,100606.59
2022-08-09T02:43:54.480Z,100603.66
2022-08-09T02:44:33.328Z,100605.41
2022-08-09T02:45:15.695Z,100607.31
2022-08-09T02:45:52.515Z,100607.66
2022-08-09T02:46:27.469Z,100607.66
2022-08-09T02:47:06.390Z,100607.66
2022-08-09T02:47:57.744Z,100603.59
2022-08-09T02:48:37.687Z,100602.63
2022-08-09T02:49:15.996Z,100605.06
2022-08-09T02:50:01.303Z,100600.69
2022-08-09T02:50:42.474Z,100604.88
2022-08-09T02:51:20.617Z,100607.59
2022-08-09T02:51:57.608Z,100605.69
2022-08-09T02:52:40.198Z,100602.94
2022-08-09T02:53:26.110Z,100608.72
2022-08-09T02:54:01.174Z,100611.44
2022-08-09T02:54:54.650Z,100610.63
2022-08-09T02:55:39.424Z,100614.31
2022-08-09T02:56:28.061Z,100609.47
2022-08-09T02:57:13.949Z,100617.34
2022-08-09T02:58:35.913Z,100607.84
2022-08-09T02:58:57.342Z,100609.59
2022-08-09T02:59:36.399Z,100610.59
2022-08-09T03:00:25.716Z,100609.78
2022-08-09T03:01:00.264Z,100614.41
2022-08-09T03:01:42.618Z,100612.19
2022-08-09T03:02:33.747Z,100612.81
2022-08-09T03:03:08.916Z,100617.16
2022-08-09T03:04:17.288Z,100607.34
2022-08-09T03:04:41.616Z,100604.75
2022-08-09T03:05:17.431Z,100607.97
2022-08-09T03:05:52.073Z,100615.88
2022-08-09T03:06:32.062Z,100608.78
2022-08-09T03:07:12.475Z,100615.06
2022-08-09T03:07:54.931Z,100610.72
2022-08-09T03:08:31.277Z,100608.78
2022-08-09T03:09:05.388Z,100606.56
2022-08-09T03:09:42.816Z,100608.97
2022-08-09T03:10:19.236Z,100610.59
2022-08-09T03:10:52.920Z,100612.19
2022-08-09T03:12:06.597Z,100608.34
2022-08-09T03:12:22.400Z,100610.59
2022-08-09T03:12:55.602Z,100609.13
2022-08-09T03:13:43.406Z,100612.84
2022-08-09T03:14:29.372Z,100607.22
2022-08-09T03:15:05.788Z,100612.09
2022-08-09T03:16:04.256Z,100609.81
2022-08-09T03:16:41.408Z,100602.28
2022-08-09T03:17:20.392Z,100607.41
2022-08-09T03:17:59.966Z,100607.09
2022-08-09T03:18:35.594Z,100614.34
2022-08-09T03:19:16.782Z,100606.97
2022-08-09T03:20:11.611Z,100610.81
2022-08-09T03:20:44.480Z,100613.53
2022-08-09T03:21:19.988Z,100612.13
2022-08-09T03:22:03.257Z,100611.00
2022-08-09T03:22:41.707Z,100611.81
2022-08-09T03:23:24.328Z,100609.06
2022-08-09T03:24:04.746Z,100611.50
2022-08-09T03:24:52.341Z,100614.22
2022-08-09T03:25:57.846Z,100611.81
2022-08-09T03:26:21.191Z,100617.25
2022-08-09T03:27:07.407Z,100610.69
2022-08-09T03:27:44.613Z,100612.31
2022-08-09T03:28:18.302Z,100616.31
2022-08-09T03:28:59.374Z,100612.19
2022-08-09T03:29:35.696Z,100618.44
2022-08-09T03:30:30.015Z,100618.25
2022-08-09T03:31:10.479Z,100616.84
2022-08-09T03:32:00.273Z,100610.56
2022-08-09T03:32:38.571Z,100615.72
2022-08-09T03:33:17.813Z,100608.63
2022-08-09T03:33:54.546Z,100609.44
2022-08-09T03:34:31.355Z,100607.53
2022-08-09T03:35:24.475Z,100605.59
2022-08-09T03:36:13.381Z,100612.78
2022-08-09T03:36:59.616Z,100603.59
2022-08-09T03:37:55.393Z,100606.34
2022-08-09T03:38:28.727Z,100610.50
2022-08-09T03:39:03.975Z,100612.59
2022-08-09T03:39:37.647Z,100611.50
2022-08-09T03:40:14.559Z,100607.31
2022-08-09T03:40:50.550Z,100608.47
2022-08-09T03:41:29.792Z,100602.66
2022-08-09T03:42:14.109Z,100606.84
2022-08-09T03:42:51.702Z,100609.28
2022-08-09T03:43:31.727Z,100619.06
2022-08-09T03:44:08.946Z,100616.03
2022-08-09T03:44:43.938Z,100615.22
2022-08-09T03:45:16.736Z,100618.75
2022-08-09T03:46:20.038Z,100618.88
2022-08-09T03:46:59.431Z,100620.00
2022-08-09T03:47:36.669Z,100622.94
2022-08-09T03:48:18.965Z,100619.88
2022-08-09T03:49:03.742Z,100619.06
2022-08-09T03:49:58.693Z,100622.59
2022-08-09T03:50:33.392Z,100626.44
2022-08-09T03:51:55.185Z,100629.69
2022-08-09T03:52:04.392Z,100622.13
2022-08-09T03:52:38.750Z,100628.41
2022-08-09T03:53:11.506Z,100620.69
2022-08-09T03:53:47.535Z,100620.38
2022-08-09T03:54:29.389Z,100624.72
2022-08-09T03:55:09.799Z,100621.19
2022-08-09T03:55:42.508Z,100621.50
2022-08-09T03:56:14.871Z,100622.00
2022-08-09T03:56:50.001Z,100625.19
2022-08-09T03:57:24.582Z,100620.84
2022-08-09T03:58:06.576Z,100627.63
2022-08-09T03:58:47.186Z,100622.78
2022-08-09T03:59:52.906Z,100625.19
2022-08-09T04:00:20.707Z,100623.09
2022-08-09T04:00:59.005Z,100626.81
2022-08-09T04:01:32.094Z,100625.38
2022-08-09T04:02:05.593Z,100625.06
2022-08-09T04:02:44.988Z,100628.63
2022-08-09T04:03:24.610Z,100633.28
2022-08-09T04:04:14.528Z,100630.78
2022-08-09T04:04:50.975Z,100627.25
2022-08-09T04:05:27.414Z,100629.38
2022-08-09T04:06:00.693Z,100628.25
2022-08-09T04:06:39.748Z,100623.59
2022-08-09T04:07:16.876Z,100623.91
2022-08-09T04:07:56.686Z,100626.00
2022-08-09T04:08:29.925Z,100621.66
2022-08-09T04:09:03.790Z,100621.34
2022-08-09T04:09:58.655Z,100617.66
2022-08-09T04:10:31.457Z,100621.34
2022-08-09T04:11:03.725Z,100624.56
2022-08-09T04:12:00.904Z,100628.91
2022-08-09T04:12:47.282Z,100620.56
2022-08-09T04:13:44.783Z,100623.75
2022-08-09T04:14:53.246Z,100622.16
2022-08-09T04:15:17.143Z,100619.09
2022-08-09T04:16:19.290Z,100624.56
2022-08-09T04:16:57.367Z,100619.91
2022-08-09T04:17:29.953Z,100625.88
2022-08-09T04:18:04.399Z,100624.44
2022-08-09T04:18:40.838Z,100618.69
2022-08-09T04:19:30.046Z,100618.69
2022-08-09T04:20:07.274Z,100617.34
2022-08-09T04:20:42.308Z,100614.88
2022-08-09T04:21:16.699Z,100621.13
2022-08-09T04:21:49.713Z,100624.84
2022-08-09T04:22:24.477Z,100613.13
2022-08-09T04:23:00.242Z,100617.13
2022-08-09T04:23:36.723Z,100621.47
2022-08-09T04:24:09.066Z,100619.25
2022-08-09T04:24:43.893Z,100615.06
2022-08-09T04:25:19.122Z,100618.31
2022-08-09T04:25:52.096Z,100607.06
2022-08-09T04:26:25.321Z,100609.94
2022-08-09T04:27:12.963Z,100613.50
2022-08-09T04:27:49.021Z,100611.28
2022-08-09T04:28:34.189Z,100610.16
2022-08-09T04:29:15.426Z,100603.06
2022-08-09T04:29:50.165Z,100608.53
2022-08-09T04:30:28.866Z,100608.53
2022-08-09T04:31:01.022Z,100611.28
2022-08-09T04:31:47.177Z,100605.31
2022-08-09T04:32:31.331Z,100611.56
2022-08-09T04:33:05.950Z,100606.41
2022-08-09T04:33:52.628Z,100613.50
2022-08-09T04:34:30.796Z,100610.28
2022-08-09T04:35:04.946Z,100613.03
2022-08-09T04:35:43.480Z,100606.41
2022-08-09T04:36:15.875Z,100614.81
2022-08-09T04:36:54.309Z,100609.81
2022-08-09T04:37:46.074Z,100614.16
2022-08-09T04:38:18.638Z,100611.28
2022-08-09T04:38:53.879Z,100608.19
2022-08-09T04:39:26.084Z,100613.38
2022-08-09T04:40:04.716Z,100607.09
2022-08-09T04:40:54.195Z,100612.25
2022-08-09T04:41:32.481Z,100609.00
2022-08-09T04:42:05.986Z,100604.34
2022-08-09T04:42:44.237Z,100610.31
2022-08-09T04:43:16.860Z,100610.00
2022-08-09T04:43:53.650Z,100606.66
2022-08-09T04:44:41.042Z,100607.25
2022-08-09T04:45:21.629Z,100601.47
2022-08-09T04:45:58.461Z,100608.75
2022-08-09T04:46:37.600Z,100602.97
2022-08-09T04:47:44.972Z,100606.00
2022-08-09T04:48:20.034Z,100611.97
2022-08-09T04:48:57.608Z,100605.06
2022-08-09T04:49:52.662Z,100603.13
2022-08-09T04:50:31.980Z,100612.44
2022-08-09T04:51:07.424Z,100617.91
2022-08-09T04:51:42.234Z,100613.25
2022-08-09T04:52:18.539Z,100610.22
2022-08-09T04:52:57.656Z,100620.03
2022-08-09T04:53:33.182Z,100614.75
2022-08-09T04:54:06.799Z,100614.41
2022-08-09T04:54:38.962Z,100614.91
2022-08-09T04:55:14.811Z,100611.53
2022-08-09T04:55:59.028Z,100622.16
2022-08-09T04:56:34.569Z,100620.22
2022-08-09T04:57:09.401Z,100609.75
2022-08-09T04:57:58.785Z,100613.81
2022-08-09T04:58:34.579Z,100613.81
2022-08-09T04:59:13.196Z,100612.34
2022-08-09T04:59:48.226Z,100622.19
2022-08-09T05:00:22.634Z,100615.25
2022-08-09T05:01:01.529Z,100619.31
2022-08-09T05:01:33.687Z,100621.69
2022-08-09T05:02:06.435Z,100616.72
2022-08-09T05:02:41.897Z,100619.97
2022-08-09T05:03:40.256Z,100618.50
2022-08-09T05:04:06.558Z,100618.50
2022-08-09T05:04:42.657Z,100608.06
2022-08-09T05:05:14.828Z,100614.00
2022-08-09T05:06:07.532Z,100617.88
2022-08-09T05:06:39.891Z,100610.16
2022-08-09T05:07:19.175Z,100612.59
2022-08-09T05:07:54.792Z,100616.63
2022-08-09T05:08:28.247Z,100614.06
2022-08-09T05:09:01.535Z,100621.81
2022-08-09T05:09:42.169Z,100615.84
2022-08-09T05:10:17.860Z,100609.25
2022-08-09T05:10:49.970Z,100618.72
2022-08-09T05:11:26.547Z,100612.66
2022-08-09T05:12:05.058Z,100619.69
2022-08-09T05:12:37.838Z,100615.53
2022-08-09T05:13:14.387Z,100616.81
2022-08-09T05:13:47.355Z,100614.09
2022-08-09T05:14:20.917Z,100611.03
2022-08-09T05:15:03.530Z,100611.84
2022-08-09T05:15:48.024Z,100612.16
2022-08-09T05:16:32.020Z,100612.16
2022-08-09T05:17:04.443Z,100620.84
2022-08-09T05:18:39.450Z,100619.25
2022-08-09T05:18:58.080Z,100622.28
2022-08-09T05:19:44.964Z,100616.97
2022-08-09T05:20:18.597Z,100618.94
2022-08-09T05:20:51.354Z,100623.75
2022-08-09T05:21:30.226Z,100631.00
2022-08-09T05:22:35.066Z,100621.66
2022-08-09T05:23:54.238Z,100627.59
2022-08-09T05:24:01.910Z,100621.03
2022-08-09T05:24:37.071Z,100625.84
2022-08-09T05:25:10.130Z,100620.88
2022-08-09T05:25:42.338Z,100614.91
2022-08-09T05:26:26.533Z,100617.63
2022-08-09T05:27:09.861Z,100624.25
2022-08-09T05:27:47.929Z,100619.75
2022-08-09T05:28:23.566Z,100626.81
2022-08-09T05:28:56.320Z,100624.56
2022-08-09T05:29:31.570Z,100619.91
2022-08-09T05:30:06.915Z,100626.19
2022-08-09T05:30:39.177Z,100625.53
2022-08-09T05:31:37.033Z,100617.31
2022-08-09T05:32:20.112Z,100629.06
2022-08-09T05:32:55.403Z,100626.03
2022-08-09T05:33:32.811Z,100626.19
2022-08-09T05:34:08.098Z,100622.31
2022-08-09T05:34:48.946Z,100623.13
2022-08-09T05:35:22.135Z,100619.25
2022-08-09T05:35:57.334Z,100623.59
2022-08-09T05:36:30.289Z,100617.66
2022-08-09T05:37:11.271Z,100616.84
2022-08-09T05:37:47.991Z,100625.06
2022-08-09T05:38:22.458Z,100624.72
2022-08-09T05:38:54.898Z,100619.75
2022-08-09T05:39:36.545Z,100622.16
2022-08-09T05:40:16.256Z,100623.28
2022-08-09T05:40:53.170Z,100616.84
2022-08-09T05:41:25.416Z,100623.59
2022-08-09T05:42:01.636Z,100622.94
2022-08-09T05:42:39.257Z,100618.28
2022-08-09T05:43:12.029Z,100619.56
2022-08-09T05:43:45.051Z,100615.38
2022-08-09T05:44:32.240Z,100618.59
2022-08-09T05:45:06.458Z,100618.59
2022-08-09T05:45:52.824Z,100626.47
2022-08-09T05:46:28.787Z,100619.88
2022-08-09T05:47:05.425Z,100628.59
2022-08-09T05:47:50.871Z,100627.94
2022-08-09T05:48:32.921Z,100614.25
2022-08-09T05:49:07.421Z,100628.59
2022-08-09T05:50:25.686Z,100623.59
2022-08-09T05:51:12.095Z,100625.69
2022-08-09T05:51:46.965Z,100621.53
2022-08-09T05:52:19.385Z,100616.53
2022-08-09T05:52:54.048Z,100626.03
2022-08-09T05:53:33.235Z,100629.72
2022-08-09T05:54:06.369Z,100622.63
2022-08-09T05:54:39.166Z,100625.88
2022-08-09T05:55:20.820Z,100626.66
2022-08-09T05:55:53.990Z,100630.22
2022-08-09T05:56:27.459Z,100626.00
2022-08-09T05:57:02.220Z,100627.28
2022-08-09T05:57:50.917Z,100633.56
2022-08-09T05:58:32.239Z,100625.69
2022-08-09T05:59:04.459Z,100628.91
2022-08-09T05:59:39.304Z,100622.78
2022-08-09T06:00:14.900Z,100632.28
2022-08-09T06:00:50.242Z,100632.44
2022-08-09T06:01:23.191Z,100623.88
2022-08-09T06:01:58.837Z,100627.91
2022-08-09T06:02:34.124Z,100622.09
2022-08-09T06:03:10.743Z,100628.84
2022-08-09T06:03:54.480Z,100629.34
2022-08-09T06:04:34.772Z,100626.28
2022-08-09T06:05:08.952Z,100631.91
2022-08-09T06:05:57.272Z,100631.25
2022-08-09T06:06:36.540Z,100630.13
2022-08-09T06:07:21.582Z,100631.09
2022-08-09T06:08:05.439Z,100621.06
2022-08-09T06:08:43.050Z,100629.13
2022-08-09T06:09:55.139Z,100625.25
2022-08-09T06:10:19.515Z,100627.63
2022-08-09T06:10:52.012Z,100630.88
2022-08-09T06:11:40.659Z,100626.66
2022-08-09T06:12:18.966Z,100634.41
2022-08-09T06:13:02.830Z,100627.47
2022-08-09T06:13:40.290Z,100623.28
2022-08-09T06:14:13.555Z,100632.09
2022-08-09T06:14:45.708Z,100630.38
2022-08-09T06:15:20.479Z,100629.38
2022-08-09T06:15:55.977Z,100632.59
2022-08-09T06:16:29.652Z,100633.84
2022-08-09T06:17:09.422Z,100631.59
2022-08-09T06:17:41.994Z,100634.50
2022-08-09T06:18:16.843Z,100638.19
2022-08-09T06:18:51.627Z,100629.97
2022-08-09T06:19:24.379Z,100632.09
2022-08-09T06:20:02.362Z,100631.72
2022-08-09T06:20:34.742Z,100630.59
2022-08-09T06:21:10.667Z,100636.56
2022-08-09T06:21:51.426Z,100635.41
2022-08-09T06:22:30.538Z,100629.94
2022-08-09T06:23:05.497Z,100632.34
2022-08-09T06:23:57.223Z,100627.69
2022-08-09T06:24:32.548Z,100629.94
2022-08-09T06:25:08.638Z,100629.63
2022-08-09T06:25:44.514Z,100635.59
2022-08-09T06:26:28.576Z,100632.50
2022-08-09T06:27:01.057Z,100628.94
2022-08-09T06:27:42.370Z,100631.69
2022-08-09T06:28:18.120Z,100634.09
2022-08-09T06:29:01.122Z,100641.66
2022-08-09T06:29:58.566Z,100633.78
2022-08-09T06:30:31.879Z,100632.63
2022-08-09T06:31:04.283Z,100639.41
2022-08-09T06:31:40.156Z,100637.13
2022-08-09T06:32:59.790Z,100645.69
2022-08-09T06:33:40.423Z,100635.06
2022-08-09T06:34:16.312Z,100634.25
2022-08-09T06:34:53.035Z,100632.00
2022-08-09T06:35:56.189Z,100640.34
2022-08-09T06:36:20.349Z,100636.00
2022-08-09T06:37:00.138Z,100640.03
2022-08-09T06:37:32.461Z,100637.75
2022-08-09T06:38:32.269Z,100640.50
2022-08-09T06:39:11.898Z,100633.88
2022-08-09T06:39:57.819Z,100642.56
2022-08-09T06:40:33.404Z,100635.13
2022-08-09T06:41:18.274Z,100636.44
2022-08-09T06:42:07.737Z,100637.22
2022-08-09T06:42:45.178Z,100635.28
2022-08-09T06:43:19.038Z,100635.75
2022-08-09T06:43:53.053Z,100636.69
2022-08-09T06:44:28.280Z,100634.09
2022-08-09T06:46:04.393Z,100642.00
2022-08-09T06:46:07.312Z,100635.38
2022-08-09T06:46:43.671Z,100631.69
2022-08-09T06:47:20.341Z,100643.94
2022-08-09T06:48:00.761Z,100636.31
2022-08-09T06:48:42.672Z,100637.13
2022-08-09T06:49:22.600Z,100632.88
2022-08-09T06:50:14.606Z,100632.88
2022-08-09T06:50:51.355Z,100632.88
2022-08-09T06:51:26.182Z,100639.31
2022-08-09T06:52:00.279Z,100639.81
2022-08-09T06:52:35.241Z,100644.16
2022-08-09T06:53:07.487Z,100645.44
2022-08-09T06:53:42.590Z,100636.41
2022-08-09T06:54:16.006Z,100646.25
2022-08-09T06:54:54.147Z,100640.78
2022-08-09T06:55:32.090Z,100639.97
2022-08-09T06:56:05.406Z,100644.66
2022-08-09T06:56:46.274Z,100647.06
2022-08-09T06:57:18.724Z,100639.28
2022-08-09T06:58:03.847Z,100638.16
2022-08-09T07:00:47.763Z,100637.03
2022-08-09T07:00:49.543Z,100639.09
2022-08-09T07:00:56.901Z,100627.66
2022-08-09T07:01:19.201Z,100636.00
2022-08-09T07:02:03.540Z,100643.25
2022-08-09T07:02:37.116Z,100644.19
2022-08-09T07:03:13.693Z,100638.38
2022-08-09T07:03:52.475Z,100642.84
2022-08-09T07:04:29.468Z,100638.63
2022-08-09T07:05:02.363Z,100640.69
2022-08-09T07:06:02.269Z,100644.72
2022-08-09T07:06:29.744Z,100643.59
2022-08-09T07:07:05.124Z,100638.22
2022-08-09T07:07:59.995Z,100642.22
2022-08-09T07:08:32.588Z,100636.41
2022-08-09T07:09:04.862Z,100641.22
2022-08-09T07:09:55.597Z,100635.06
2022-08-09T07:10:32.537Z,100635.72
2022-08-09T07:11:07.149Z,100638.47
2022-08-09T07:11:45.555Z,100645.56
2022-08-09T07:12:38.693Z,100647.84
2022-08-09T07:13:27.458Z,100639.16
2022-08-09T07:14:05.359Z,100646.59
2022-08-09T07:14:41.066Z,100645.44
2022-08-09T07:15:53.944Z,100642.69
2022-08-09T07:16:43.461Z,100643.03
2022-08-09T07:17:01.091Z,100644.63
2022-08-09T07:17:39.579Z,100642.34
2022-08-09T07:18:24.853Z,100648.66
2022-08-09T07:19:03.693Z,100643.31
2022-08-09T07:19:36.147Z,100653.94
2022-08-09T07:20:10.498Z,100657.63
2022-08-09T07:20:47.831Z,100647.91
2022-08-09T07:21:20.413Z,100647.56
2022-08-09T07:21:55.491Z,100647.22
2022-08-09T07:22:35.411Z,100655.47
2022-08-09T07:23:19.032Z,100651.47
2022-08-09T07:23:57.677Z,100643.22
2022-08-09T07:24:39.770Z,100649.53
2022-08-09T07:25:15.670Z,100648.03
2022-08-09T07:25:52.263Z,100645.75
2022-08-09T07:26:24.930Z,100649.75
2022-08-09T07:26:59.724Z,100642.31
2022-08-09T07:27:34.422Z,100646.00
2022-08-09T07:28:19.434Z,100645.34
2022-08-09T07:29:08.243Z,100645.47
2022-08-09T07:29:46.532Z,100642.38
2022-08-09T07:30:18.897Z,100643.66
2022-08-09T07:30:56.930Z,100638.94
2022-08-09T07:31:29.091Z,100643.78
2022-08-09T07:32:12.934Z,100641.50
2022-08-09T07:32:46.094Z,100643.91
2022-08-09T07:33:18.398Z,100640.03
2022-08-09T07:33:55.825Z,100641.97
2022-08-09T07:34:31.057Z,100639.53
2022-08-09T07:35:11.552Z,100642.28
2022-08-09T07:35:54.011Z,100641.97
2022-08-09T07:36:26.958Z,100648.72
2022-08-09T07:37:02.823Z,100641.38
2022-08-09T07:37:42.891Z,100644.63
2022-08-09T07:38:16.457Z,100641.97
2022-08-09T07:38:58.414Z,100646.47
2022-08-09T07:39:40.311Z,100647.06
2022-08-09T07:40:20.645Z,100644.75
2022-08-09T07:41:11.803Z,100638.91